sensor_id;sensor_type;location;lat;lon;timestamp;P1;durP1;ratioP1;P2;durP2;ratioP2
2928;SDS011;1474;51.460;7.150;2022-08-03T00:01:32;0.30;;;0.30;;
2928;SDS011;1474;51.460;7.150;2022-08-03T00:03:58;0.77;;;0.77;;
2928;SDS011;1474;51.460;7.150;2022-08-03T00:06:24;1.80;;;1.25;;
2928;SDS011;1474;51.460;7.150;2022-08-03T00:08:50;0.98;;;0.82;;
2928;SDS011;1474;51.460;7.150;2022-08-03T00:11:15;0.57;;;0.57;;
2928;SDS011;1474;51.460;7.150;2022-08-03T00:13:43;0.52;;;0.50;;
2928;SDS011;1474;51.460;7.150;2022-08-03T00:16:09;0.50;;;0.38;;
2928;SDS011;1474;51.460;7.150;2022-08-03T00:18:35;0.57;;;0.57;;
2928;SDS011;1474;51.460;7.150;2022-08-03T00:21:01;0.80;;;0.50;;
2928;SDS011;1474;51.460;7.150;2022-08-03T00:23:27;0.70;;;0.55;;
2928;SDS011;1474;51.460;7.150;2022-08-03T00:25:53;0.77;;;0.77;;
2928;SDS011;1474;51.460;7.150;2022-08-03T00:28:19;0.60;;;0.50;;
2928;SDS011;1474;51.460;7.150;2022-08-03T00:30:44;0.60;;;0.50;;
2928;SDS011;1474;51.460;7.150;2022-08-03T00:33:10;0.60;;;0.60;;
2928;SDS011;1474;51.460;7.150;2022-08-03T00:35:36;0.57;;;0.57;;
2928;SDS011;1474;51.460;7.150;2022-08-03T00:38:01;0.32;;;0.32;;
2928;SDS011;1474;51.460;7.150;2022-08-03T00:40:28;2.35;;;1.02;;
2928;SDS011;1474;51.460;7.150;2022-08-03T00:42:58;1.08;;;0.65;;
2928;SDS011;1474;51.460;7.150;2022-08-03T00:45:26;0.32;;;0.32;;
2928;SDS011;1474;51.460;7.150;2022-08-03T00:47:53;0.60;;;0.47;;
2928;SDS011;1474;51.460;7.150;2022-08-03T00:50:20;0.25;;;0.25;;
2928;SDS011;1474;51.460;7.150;2022-08-03T00:52:48;0.35;;;0.20;;
2928;SDS011;1474;51.460;7.150;2022-08-03T00:55:15;0.70;;;0.70;;
2928;SDS011;1474;51.460;7.150;2022-08-03T00:57:41;0.65;;;0.60;;
2928;SDS011;1474;51.460;7.150;2022-08-03T01:00:09;0.30;;;0.30;;
2928;SDS011;1474;51.460;7.150;2022-08-03T01:02:36;0.28;;;0.28;;
2928;SDS011;1474;51.460;7.150;2022-08-03T01:05:03;0.50;;;0.45;;
2928;SDS011;1474;51.460;7.150;2022-08-03T01:20:50;1.65;;;0.50;;
2928;SDS011;1474;51.460;7.150;2022-08-03T01:23:33;1.02;;;0.85;;
2928;SDS011;1474;51.460;7.150;2022-08-03T01:32:51;0.40;;;0.40;;
2928;SDS011;1474;51.460;7.150;2022-08-03T01:35:43;1.17;;;0.68;;
2928;SDS011;1474;51.460;7.150;2022-08-03T01:38:14;0.40;;;0.40;;
2928;SDS011;1474;51.460;7.150;2022-08-03T01:40:51;0.85;;;0.57;;
2928;SDS011;1474;51.460;7.150;2022-08-03T01:43:23;0.32;;;0.30;;
2928;SDS011;1474;51.460;7.150;2022-08-03T01:45:54;0.40;;;0.38;;
2928;SDS011;1474;51.460;7.150;2022-08-03T01:48:22;1.85;;;0.93;;
2928;SDS011;1474;51.460;7.150;2022-08-03T01:50:48;0.68;;;0.68;;
2928;SDS011;1474;51.460;7.150;2022-08-03T01:53:15;0.20;;;0.20;;
2928;SDS011;1474;51.460;7.150;2022-08-03T01:55:46;0.82;;;0.70;;
2928;SDS011;1474;51.460;7.150;2022-08-03T01:58:16;0.77;;;0.68;;
2928;SDS011;1474;51.460;7.150;2022-08-03T02:00:44;0.55;;;0.40;;
2928;SDS011;1474;51.460;7.150;2022-08-03T02:03:12;2.13;;;0.70;;
2928;SDS011;1474;51.460;7.150;2022-08-03T02:05:40;0.88;;;0.88;;
2928;SDS011;1474;51.460;7.150;2022-08-03T02:08:09;1.48;;;0.50;;
2928;SDS011;1474;51.460;7.150;2022-08-03T02:10:36;0.95;;;0.82;;
2928;SDS011;1474;51.460;7.150;2022-08-03T02:13:06;0.50;;;0.32;;
2928;SDS011;1474;51.460;7.150;2022-08-03T02:15:34;0.40;;;0.35;;
2928;SDS011;1474;51.460;7.150;2022-08-03T02:18:01;0.30;;;0.30;;
2928;SDS011;1474;51.460;7.150;2022-08-03T02:23:00;0.50;;;0.50;;
2928;SDS011;1474;51.460;7.150;2022-08-03T02:25:26;4.93;;;0.70;;
2928;SDS011;1474;51.460;7.150;2022-08-03T02:27:55;0.75;;;0.75;;
2928;SDS011;1474;51.460;7.150;2022-08-03T02:30:27;0.73;;;0.47;;
2928;SDS011;1474;51.460;7.150;2022-08-03T02:33:02;0.45;;;0.45;;
2928;SDS011;1474;51.460;7.150;2022-08-03T02:35:29;1.48;;;1.02;;
2928;SDS011;1474;51.460;7.150;2022-08-03T02:38:01;0.52;;;0.52;;
2928;SDS011;1474;51.460;7.150;2022-08-03T02:40:29;1.10;;;1.00;;
2928;SDS011;1474;51.460;7.150;2022-08-03T02:42:59;0.47;;;0.47;;
2928;SDS011;1474;51.460;7.150;2022-08-03T02:45:29;0.38;;;0.38;;
2928;SDS011;1474;51.460;7.150;2022-08-03T02:47:59;1.17;;;0.82;;
2928;SDS011;1474;51.460;7.150;2022-08-03T02:50:29;1.33;;;0.70;;
2928;SDS011;1474;51.460;7.150;2022-08-03T02:52:56;0.95;;;0.90;;
2928;SDS011;1474;51.460;7.150;2022-08-03T02:55:23;0.55;;;0.45;;
2928;SDS011;1474;51.460;7.150;2022-08-03T02:57:51;0.50;;;0.50;;
2928;SDS011;1474;51.460;7.150;2022-08-03T03:00:18;0.70;;;0.68;;
2928;SDS011;1474;51.460;7.150;2022-08-03T03:02:44;0.57;;;0.57;;
2928;SDS011;1474;51.460;7.150;2022-08-03T03:05:10;1.05;;;0.70;;
2928;SDS011;1474;51.460;7.150;2022-08-03T03:07:37;0.57;;;0.57;;
2928;SDS011;1474;51.460;7.150;2022-08-03T03:10:05;1.30;;;1.00;;
2928;SDS011;1474;51.460;7.150;2022-08-03T03:12:32;0.85;;;0.85;;
2928;SDS011;1474;51.460;7.150;2022-08-03T03:15:01;0.77;;;0.68;;
2928;SDS011;1474;51.460;7.150;2022-08-03T03:17:27;0.70;;;0.50;;
2928;SDS011;1474;51.460;7.150;2022-08-03T03:19:54;0.77;;;0.45;;
2928;SDS011;1474;51.460;7.150;2022-08-03T03:22:20;0.80;;;0.80;;
2928;SDS011;1474;51.460;7.150;2022-08-03T03:24:47;0.57;;;0.52;;
2928;SDS011;1474;51.460;7.150;2022-08-03T03:27:15;0.52;;;0.52;;
2928;SDS011;1474;51.460;7.150;2022-08-03T03:29:41;0.52;;;0.52;;
2928;SDS011;1474;51.460;7.150;2022-08-03T03:32:08;0.50;;;0.50;;
2928;SDS011;1474;51.460;7.150;2022-08-03T03:34:34;0.65;;;0.52;;
2928;SDS011;1474;51.460;7.150;2022-08-03T03:37:01;1.95;;;0.68;;
2928;SDS011;1474;51.460;7.150;2022-08-03T03:39:26;7.72;;;1.15;;
2928;SDS011;1474;51.460;7.150;2022-08-03T03:41:52;0.57;;;0.57;;
2928;SDS011;1474;51.460;7.150;2022-08-03T03:44:18;2.13;;;1.45;;
2928;SDS011;1474;51.460;7.150;2022-08-03T03:46:55;1.15;;;1.05;;
2928;SDS011;1474;51.460;7.150;2022-08-03T03:49:23;0.57;;;0.55;;
2928;SDS011;1474;51.460;7.150;2022-08-03T03:51:52;0.45;;;0.45;;
2928;SDS011;1474;51.460;7.150;2022-08-03T03:54:19;1.65;;;1.25;;
2928;SDS011;1474;51.460;7.150;2022-08-03T03:56:45;0.68;;;0.68;;
2928;SDS011;1474;51.460;7.150;2022-08-03T03:59:11;0.88;;;0.73;;
2928;SDS011;1474;51.460;7.150;2022-08-03T04:01:37;1.08;;;0.85;;
2928;SDS011;1474;51.460;7.150;2022-08-03T04:04:03;1.48;;;0.40;;
2928;SDS011;1474;51.460;7.150;2022-08-03T04:06:58;0.77;;;0.77;;
2928;SDS011;1474;51.460;7.150;2022-08-03T04:09:43;1.63;;;1.02;;
2928;SDS011;1474;51.460;7.150;2022-08-03T04:12:28;0.30;;;0.30;;
2928;SDS011;1474;51.460;7.150;2022-08-03T04:14:55;1.45;;;1.02;;
2928;SDS011;1474;51.460;7.150;2022-08-03T04:17:24;0.77;;;0.70;;
2928;SDS011;1474;51.460;7.150;2022-08-03T04:19:52;0.45;;;0.45;;
2928;SDS011;1474;51.460;7.150;2022-08-03T04:22:20;0.68;;;0.55;;
2928;SDS011;1474;51.460;7.150;2022-08-03T04:24:50;0.20;;;0.20;;
2928;SDS011;1474;51.460;7.150;2022-08-03T04:27:20;0.75;;;0.73;;
2928;SDS011;1474;51.460;7.150;2022-08-03T04:29:50;0.30;;;0.30;;
2928;SDS011;1474;51.460;7.150;2022-08-03T04:32:18;0.82;;;0.82;;
2928;SDS011;1474;51.460;7.150;2022-08-03T04:34:47;0.30;;;0.30;;
2928;SDS011;1474;51.460;7.150;2022-08-03T04:37:33;0.93;;;0.70;;
2928;SDS011;1474;51.460;7.150;2022-08-03T04:40:14;1.05;;;0.90;;
2928;SDS011;1474;51.460;7.150;2022-08-03T04:42:44;0.98;;;0.88;;
2928;SDS011;1474;51.460;7.150;2022-08-03T04:45:13;0.88;;;0.50;;
2928;SDS011;1474;51.460;7.150;2022-08-03T04:47:40;1.58;;;0.73;;
2928;SDS011;1474;51.460;7.150;2022-08-03T04:50:06;0.88;;;0.63;;
2928;SDS011;1474;51.460;7.150;2022-08-03T04:52:33;0.60;;;0.60;;
2928;SDS011;1474;51.460;7.150;2022-08-03T04:55:00;0.77;;;0.77;;
2928;SDS011;1474;51.460;7.150;2022-08-03T04:57:25;0.55;;;0.52;;
2928;SDS011;1474;51.460;7.150;2022-08-03T04:59:51;0.47;;;0.40;;
2928;SDS011;1474;51.460;7.150;2022-08-03T05:02:19;1.15;;;0.68;;
2928;SDS011;1474;51.460;7.150;2022-08-03T05:04:45;2.65;;;0.68;;
2928;SDS011;1474;51.460;7.150;2022-08-03T05:07:14;2.15;;;1.00;;
2928;SDS011;1474;51.460;7.150;2022-08-03T05:09:41;0.60;;;0.45;;
2928;SDS011;1474;51.460;7.150;2022-08-03T05:12:07;1.05;;;0.90;;
2928;SDS011;1474;51.460;7.150;2022-08-03T05:14:33;0.55;;;0.55;;
2928;SDS011;1474;51.460;7.150;2022-08-03T05:17:01;0.85;;;0.55;;
2928;SDS011;1474;51.460;7.150;2022-08-03T05:19:30;2.22;;;1.80;;
2928;SDS011;1474;51.460;7.150;2022-08-03T05:21:56;1.10;;;0.98;;
2928;SDS011;1474;51.460;7.150;2022-08-03T05:24:22;3.47;;;1.52;;
2928;SDS011;1474;51.460;7.150;2022-08-03T05:26:48;1.45;;;1.10;;
2928;SDS011;1474;51.460;7.150;2022-08-03T05:29:13;1.90;;;1.30;;
2928;SDS011;1474;51.460;7.150;2022-08-03T05:31:39;1.50;;;1.40;;
2928;SDS011;1474;51.460;7.150;2022-08-03T05:34:05;1.92;;;1.23;;
2928;SDS011;1474;51.460;7.150;2022-08-03T05:36:30;1.35;;;1.02;;
2928;SDS011;1474;51.460;7.150;2022-08-03T05:38:56;0.98;;;0.93;;
2928;SDS011;1474;51.460;7.150;2022-08-03T05:41:22;1.83;;;1.17;;
2928;SDS011;1474;51.460;7.150;2022-08-03T05:43:47;1.15;;;1.00;;
2928;SDS011;1474;51.460;7.150;2022-08-03T05:46:13;1.38;;;1.27;;
2928;SDS011;1474;51.460;7.150;2022-08-03T05:48:40;1.05;;;0.95;;
2928;SDS011;1474;51.460;7.150;2022-08-03T05:51:06;2.50;;;1.60;;
2928;SDS011;1474;51.460;7.150;2022-08-03T05:53:35;1.33;;;1.23;;
2928;SDS011;1474;51.460;7.150;2022-08-03T05:56:01;1.85;;;1.08;;
2928;SDS011;1474;51.460;7.150;2022-08-03T05:58:27;1.35;;;1.25;;
2928;SDS011;1474;51.460;7.150;2022-08-03T06:00:52;0.98;;;0.68;;
2928;SDS011;1474;51.460;7.150;2022-08-03T06:03:18;1.25;;;1.15;;
2928;SDS011;1474;51.460;7.150;2022-08-03T06:05:44;7.60;;;1.77;;
2928;SDS011;1474;51.460;7.150;2022-08-03T06:08:10;0.75;;;0.75;;
2928;SDS011;1474;51.460;7.150;2022-08-03T06:10:35;1.38;;;1.08;;
2928;SDS011;1474;51.460;7.150;2022-08-03T06:13:01;1.67;;;1.58;;
2928;SDS011;1474;51.460;7.150;2022-08-03T06:15:27;1.98;;;1.65;;
2928;SDS011;1474;51.460;7.150;2022-08-03T06:17:52;3.97;;;1.55;;
2928;SDS011;1474;51.460;7.150;2022-08-03T06:20:18;1.08;;;0.77;;
2928;SDS011;1474;51.460;7.150;2022-08-03T06:22:45;1.88;;;1.27;;
2928;SDS011;1474;51.460;7.150;2022-08-03T06:25:11;2.13;;;1.00;;
2928;SDS011;1474;51.460;7.150;2022-08-03T06:27:37;2.10;;;1.65;;
2928;SDS011;1474;51.460;7.150;2022-08-03T06:30:04;1.73;;;1.30;;
2928;SDS011;1474;51.460;7.150;2022-08-03T06:32:32;2.33;;;1.27;;
2928;SDS011;1474;51.460;7.150;2022-08-03T06:34:58;1.42;;;1.33;;
2928;SDS011;1474;51.460;7.150;2022-08-03T06:37:24;1.27;;;1.17;;
2928;SDS011;1474;51.460;7.150;2022-08-03T06:39:51;4.18;;;1.95;;
2928;SDS011;1474;51.460;7.150;2022-08-03T06:42:18;1.70;;;0.88;;
2928;SDS011;1474;51.460;7.150;2022-08-03T06:44:43;2.40;;;0.80;;
2928;SDS011;1474;51.460;7.150;2022-08-03T06:47:09;2.38;;;1.42;;
2928;SDS011;1474;51.460;7.150;2022-08-03T06:49:35;0.77;;;0.77;;
2928;SDS011;1474;51.460;7.150;2022-08-03T06:52:01;1.63;;;1.02;;
2928;SDS011;1474;51.460;7.150;2022-08-03T06:54:27;1.67;;;1.15;;
2928;SDS011;1474;51.460;7.150;2022-08-03T06:56:53;1.27;;;0.90;;
2928;SDS011;1474;51.460;7.150;2022-08-03T06:59:18;1.13;;;0.80;;
2928;SDS011;1474;51.460;7.150;2022-08-03T07:01:44;2.65;;;0.80;;
2928;SDS011;1474;51.460;7.150;2022-08-03T07:04:10;0.65;;;0.65;;
2928;SDS011;1474;51.460;7.150;2022-08-03T07:06:36;1.27;;;1.05;;
2928;SDS011;1474;51.460;7.150;2022-08-03T07:09:02;1.50;;;1.08;;
2928;SDS011;1474;51.460;7.150;2022-08-03T07:11:28;1.55;;;0.68;;
2928;SDS011;1474;51.460;7.150;2022-08-03T07:13:53;0.47;;;0.47;;
2928;SDS011;1474;51.460;7.150;2022-08-03T07:16:20;1.08;;;0.98;;
2928;SDS011;1474;51.460;7.150;2022-08-03T07:21:19;1.05;;;0.68;;
2928;SDS011;1474;51.460;7.150;2022-08-03T07:23:44;0.40;;;0.40;;
2928;SDS011;1474;51.460;7.150;2022-08-03T07:26:10;1.08;;;0.60;;
2928;SDS011;1474;51.460;7.150;2022-08-03T07:28:37;0.77;;;0.77;;
2928;SDS011;1474;51.460;7.150;2022-08-03T07:31:02;1.40;;;0.77;;
2928;SDS011;1474;51.460;7.150;2022-08-03T07:33:28;0.40;;;0.40;;
2928;SDS011;1474;51.460;7.150;2022-08-03T07:35:54;0.63;;;0.50;;
2928;SDS011;1474;51.460;7.150;2022-08-03T07:38:20;0.68;;;0.60;;
2928;SDS011;1474;51.460;7.150;2022-08-03T07:40:45;1.25;;;0.80;;
2928;SDS011;1474;51.460;7.150;2022-08-03T07:43:11;0.68;;;0.45;;
2928;SDS011;1474;51.460;7.150;2022-08-03T07:45:37;1.48;;;0.70;;
2928;SDS011;1474;51.460;7.150;2022-08-03T07:48:03;1.42;;;0.90;;
2928;SDS011;1474;51.460;7.150;2022-08-03T07:50:28;0.43;;;0.43;;
2928;SDS011;1474;51.460;7.150;2022-08-03T07:52:55;1.42;;;0.52;;
2928;SDS011;1474;51.460;7.150;2022-08-03T07:55:22;0.43;;;0.43;;
2928;SDS011;1474;51.460;7.150;2022-08-03T08:00:31;1.17;;;0.52;;
2928;SDS011;1474;51.460;7.150;2022-08-03T08:02:57;0.30;;;0.30;;
2928;SDS011;1474;51.460;7.150;2022-08-03T08:05:23;0.60;;;0.60;;
2928;SDS011;1474;51.460;7.150;2022-08-03T08:07:49;0.43;;;0.43;;
2928;SDS011;1474;51.460;7.150;2022-08-03T08:10:15;4.57;;;1.05;;
2928;SDS011;1474;51.460;7.150;2022-08-03T08:12:41;0.43;;;0.43;;
2928;SDS011;1474;51.460;7.150;2022-08-03T08:15:07;0.20;;;0.20;;
2928;SDS011;1474;51.460;7.150;2022-08-03T08:17:40;0.63;;;0.43;;
2928;SDS011;1474;51.460;7.150;2022-08-03T08:20:14;0.43;;;0.43;;
2928;SDS011;1474;51.460;7.150;2022-08-03T08:22:41;0.60;;;0.40;;
2928;SDS011;1474;51.460;7.150;2022-08-03T08:25:07;0.55;;;0.40;;
2928;SDS011;1474;51.460;7.150;2022-08-03T08:27:33;0.70;;;0.50;;
2928;SDS011;1474;51.460;7.150;2022-08-03T08:30:09;0.88;;;0.50;;
2928;SDS011;1474;51.460;7.150;2022-08-03T08:32:35;0.30;;;0.30;;
2928;SDS011;1474;51.460;7.150;2022-08-03T08:35:02;0.68;;;0.47;;
2928;SDS011;1474;51.460;7.150;2022-08-03T08:37:28;0.50;;;0.50;;
2928;SDS011;1474;51.460;7.150;2022-08-03T08:39:54;0.40;;;0.40;;
2928;SDS011;1474;51.460;7.150;2022-08-03T08:42:20;0.52;;;0.50;;
2928;SDS011;1474;51.460;7.150;2022-08-03T08:44:46;0.40;;;0.25;;
2928;SDS011;1474;51.460;7.150;2022-08-03T08:47:13;0.43;;;0.40;;
2928;SDS011;1474;51.460;7.150;2022-08-03T08:49:39;0.30;;;0.30;;
2928;SDS011;1474;51.460;7.150;2022-08-03T08:52:08;0.77;;;0.45;;
2928;SDS011;1474;51.460;7.150;2022-08-03T08:54:35;1.20;;;0.93;;
2928;SDS011;1474;51.460;7.150;2022-08-03T08:57:03;0.52;;;0.52;;
2928;SDS011;1474;51.460;7.150;2022-08-03T08:59:32;0.38;;;0.38;;
2928;SDS011;1474;51.460;7.150;2022-08-03T09:01:59;0.52;;;0.40;;
2928;SDS011;1474;51.460;7.150;2022-08-03T09:04:25;0.35;;;0.35;;
2928;SDS011;1474;51.460;7.150;2022-08-03T09:06:52;0.68;;;0.50;;
2928;SDS011;1474;51.460;7.150;2022-08-03T09:09:18;0.52;;;0.32;;
2928;SDS011;1474;51.460;7.150;2022-08-03T09:11:43;4.13;;;1.00;;
2928;SDS011;1474;51.460;7.150;2022-08-03T09:14:11;1.13;;;0.65;;
2928;SDS011;1474;51.460;7.150;2022-08-03T09:16:37;1.05;;;0.80;;
2928;SDS011;1474;51.460;7.150;2022-08-03T09:19:19;0.40;;;0.40;;
2928;SDS011;1474;51.460;7.150;2022-08-03T09:21:44;1.70;;;0.57;;
2928;SDS011;1474;51.460;7.150;2022-08-03T09:24:10;0.90;;;0.88;;
2928;SDS011;1474;51.460;7.150;2022-08-03T09:26:36;0.38;;;0.30;;
2928;SDS011;1474;51.460;7.150;2022-08-03T09:29:03;0.45;;;0.40;;
2928;SDS011;1474;51.460;7.150;2022-08-03T09:31:31;0.45;;;0.45;;
2928;SDS011;1474;51.460;7.150;2022-08-03T09:34:06;0.57;;;0.40;;
2928;SDS011;1474;51.460;7.150;2022-08-03T09:36:54;0.10;;;0.10;;
2928;SDS011;1474;51.460;7.150;2022-08-03T09:39:22;0.20;;;0.20;;
2928;SDS011;1474;51.460;7.150;2022-08-03T09:42:06;0.20;;;0.13;;
2928;SDS011;1474;51.460;7.150;2022-08-03T09:44:37;0.57;;;0.10;;
2928;SDS011;1474;51.460;7.150;2022-08-03T09:47:06;0.30;;;0.30;;
2928;SDS011;1474;51.460;7.150;2022-08-03T09:49:34;0.63;;;0.43;;
2928;SDS011;1474;51.460;7.150;2022-08-03T09:52:01;0.95;;;0.30;;
2928;SDS011;1474;51.460;7.150;2022-08-03T09:54:37;0.40;;;0.38;;
2928;SDS011;1474;51.460;7.150;2022-08-03T09:57:03;0.15;;;0.15;;
2928;SDS011;1474;51.460;7.150;2022-08-03T09:59:29;0.43;;;0.43;;
2928;SDS011;1474;51.460;7.150;2022-08-03T10:01:57;0.73;;;0.45;;
2928;SDS011;1474;51.460;7.150;2022-08-03T10:04:24;0.52;;;0.32;;
2928;SDS011;1474;51.460;7.150;2022-08-03T10:07:09;0.08;;;0.08;;
2928;SDS011;1474;51.460;7.150;2022-08-03T10:09:36;2.20;;;0.60;;
2928;SDS011;1474;51.460;7.150;2022-08-03T10:12:08;0.50;;;0.45;;
2928;SDS011;1474;51.460;7.150;2022-08-03T10:14:40;0.70;;;0.63;;
2928;SDS011;1474;51.460;7.150;2022-08-03T10:17:06;1.95;;;0.70;;
2928;SDS011;1474;51.460;7.150;2022-08-03T10:19:33;0.30;;;0.30;;
2928;SDS011;1474;51.460;7.150;2022-08-03T10:22:03;0.40;;;0.30;;
2928;SDS011;1474;51.460;7.150;2022-08-03T10:24:38;0.40;;;0.40;;
2928;SDS011;1474;51.460;7.150;2022-08-03T10:27:11;0.50;;;0.50;;
2928;SDS011;1474;51.460;7.150;2022-08-03T10:29:46;0.55;;;0.55;;
2928;SDS011;1474;51.460;7.150;2022-08-03T10:35:11;0.52;;;0.38;;
2928;SDS011;1474;51.460;7.150;2022-08-03T10:37:42;0.73;;;0.70;;
2928;SDS011;1474;51.460;7.150;2022-08-03T10:40:11;3.38;;;0.57;;
2928;SDS011;1474;51.460;7.150;2022-08-03T10:42:40;0.40;;;0.40;;
2928;SDS011;1474;51.460;7.150;2022-08-03T10:45:12;1.45;;;0.73;;
2928;SDS011;1474;51.460;7.150;2022-08-03T10:47:44;0.90;;;0.50;;
2928;SDS011;1474;51.460;7.150;2022-08-03T10:50:14;1.30;;;0.65;;
2928;SDS011;1474;51.460;7.150;2022-08-03T10:53:00;1.05;;;0.70;;
2928;SDS011;1474;51.460;7.150;2022-08-03T10:55:39;0.10;;;0.10;;
2928;SDS011;1474;51.460;7.150;2022-08-03T11:01:10;0.38;;;0.38;;
2928;SDS011;1474;51.460;7.150;2022-08-03T11:06:17;2.83;;;0.57;;
2928;SDS011;1474;51.460;7.150;2022-08-03T11:11:41;0.52;;;0.32;;
2928;SDS011;1474;51.460;7.150;2022-08-03T11:14:18;0.40;;;0.40;;
2928;SDS011;1474;51.460;7.150;2022-08-03T11:16:46;0.63;;;0.40;;
2928;SDS011;1474;51.460;7.150;2022-08-03T11:19:42;0.77;;;0.73;;
2928;SDS011;1474;51.460;7.150;2022-08-03T11:22:12;1.27;;;0.50;;
2928;SDS011;1474;51.460;7.150;2022-08-03T11:35:11;1.15;;;0.50;;
2928;SDS011;1474;51.460;7.150;2022-08-03T11:48:35;1.20;;;0.55;;
2928;SDS011;1474;51.460;7.150;2022-08-03T11:51:27;0.20;;;0.20;;
2928;SDS011;1474;51.460;7.150;2022-08-03T11:53:59;0.40;;;0.40;;
2928;SDS011;1474;51.460;7.150;2022-08-03T11:56:27;0.20;;;0.15;;
2928;SDS011;1474;51.460;7.150;2022-08-03T11:59:07;0.20;;;0.20;;
2928;SDS011;1474;51.460;7.150;2022-08-03T12:01:32;0.50;;;0.30;;
2928;SDS011;1474;51.460;7.150;2022-08-03T12:04:01;2.15;;;0.50;;
2928;SDS011;1474;51.460;7.150;2022-08-03T12:06:28;0.47;;;0.38;;
2928;SDS011;1474;51.460;7.150;2022-08-03T12:08:54;0.82;;;0.70;;
2928;SDS011;1474;51.460;7.150;2022-08-03T12:11:19;0.65;;;0.32;;
2928;SDS011;1474;51.460;7.150;2022-08-03T12:13:47;0.32;;;0.32;;
2928;SDS011;1474;51.460;7.150;2022-08-03T12:16:24;0.30;;;0.30;;
2928;SDS011;1474;51.460;7.150;2022-08-03T12:21:22;0.20;;;0.20;;
2928;SDS011;1474;51.460;7.150;2022-08-03T12:23:49;2.00;;;0.38;;
2928;SDS011;1474;51.460;7.150;2022-08-03T12:26:15;0.30;;;0.30;;
2928;SDS011;1474;51.460;7.150;2022-08-03T12:28:47;0.17;;;0.17;;
2928;SDS011;1474;51.460;7.150;2022-08-03T12:31:14;1.55;;;0.25;;
2928;SDS011;1474;51.460;7.150;2022-08-03T12:33:56;1.17;;;0.20;;
2928;SDS011;1474;51.460;7.150;2022-08-03T12:36:23;2.38;;;0.32;;
2928;SDS011;1474;51.460;7.150;2022-08-03T12:39:03;0.30;;;0.20;;
2928;SDS011;1474;51.460;7.150;2022-08-03T12:41:31;0.47;;;0.47;;
2928;SDS011;1474;51.460;7.150;2022-08-03T12:43:57;0.10;;;0.10;;
2928;SDS011;1474;51.460;7.150;2022-08-03T12:46:28;0.40;;;0.32;;
2928;SDS011;1474;51.460;7.150;2022-08-03T12:49:11;0.20;;;0.20;;
2928;SDS011;1474;51.460;7.150;2022-08-03T12:54:14;0.28;;;0.28;;
2928;SDS011;1474;51.460;7.150;2022-08-03T12:56:59;0.32;;;0.20;;
2928;SDS011;1474;51.460;7.150;2022-08-03T12:59:40;0.52;;;0.25;;
2928;SDS011;1474;51.460;7.150;2022-08-03T13:04:43;0.52;;;0.40;;
2928;SDS011;1474;51.460;7.150;2022-08-03T13:07:10;0.10;;;0.10;;
2928;SDS011;1474;51.460;7.150;2022-08-03T13:09:44;0.60;;;0.30;;
2928;SDS011;1474;51.460;7.150;2022-08-03T13:12:12;0.40;;;0.20;;
2928;SDS011;1474;51.460;7.150;2022-08-03T13:14:43;0.30;;;0.30;;
2928;SDS011;1474;51.460;7.150;2022-08-03T13:17:10;0.30;;;0.20;;
2928;SDS011;1474;51.460;7.150;2022-08-03T13:19:37;0.20;;;0.20;;
2928;SDS011;1474;51.460;7.150;2022-08-03T13:22:13;0.05;;;0.05;;
2928;SDS011;1474;51.460;7.150;2022-08-03T13:24:40;1.75;;;0.63;;
2928;SDS011;1474;51.460;7.150;2022-08-03T13:27:07;0.38;;;0.38;;
2928;SDS011;1474;51.460;7.150;2022-08-03T13:29:33;0.40;;;0.17;;
2928;SDS011;1474;51.460;7.150;2022-08-03T13:32:02;0.30;;;0.30;;
2928;SDS011;1474;51.460;7.150;2022-08-03T13:34:29;1.02;;;0.20;;
2928;SDS011;1474;51.460;7.150;2022-08-03T13:36:55;0.45;;;0.28;;
2928;SDS011;1474;51.460;7.150;2022-08-03T13:39:20;0.80;;;0.50;;
2928;SDS011;1474;51.460;7.150;2022-08-03T13:41:46;0.30;;;0.25;;
2928;SDS011;1474;51.460;7.150;2022-08-03T13:44:12;0.50;;;0.28;;
2928;SDS011;1474;51.460;7.150;2022-08-03T13:46:38;0.45;;;0.20;;
2928;SDS011;1474;51.460;7.150;2022-08-03T13:49:05;0.25;;;0.25;;
2928;SDS011;1474;51.460;7.150;2022-08-03T13:51:31;0.38;;;0.30;;
2928;SDS011;1474;51.460;7.150;2022-08-03T13:53:57;0.30;;;0.30;;
2928;SDS011;1474;51.460;7.150;2022-08-03T13:56:25;4.18;;;0.50;;
2928;SDS011;1474;51.460;7.150;2022-08-03T13:58:51;0.20;;;0.20;;
2928;SDS011;1474;51.460;7.150;2022-08-03T14:01:17;0.50;;;0.30;;
2928;SDS011;1474;51.460;7.150;2022-08-03T14:03:43;1.02;;;0.47;;
2928;SDS011;1474;51.460;7.150;2022-08-03T14:06:10;0.32;;;0.30;;
2928;SDS011;1474;51.460;7.150;2022-08-03T14:08:36;0.90;;;0.43;;
2928;SDS011;1474;51.460;7.150;2022-08-03T14:11:02;0.77;;;0.28;;
2928;SDS011;1474;51.460;7.150;2022-08-03T14:13:42;0.52;;;0.52;;
2928;SDS011;1474;51.460;7.150;2022-08-03T14:20:06;0.20;;;0.20;;
2928;SDS011;1474;51.460;7.150;2022-08-03T14:22:32;0.05;;;0.05;;
2928;SDS011;1474;51.460;7.150;2022-08-03T14:24:58;0.95;;;0.45;;
2928;SDS011;1474;51.460;7.150;2022-08-03T14:27:24;1.35;;;0.50;;
2928;SDS011;1474;51.460;7.150;2022-08-03T14:29:49;2.20;;;0.40;;
2928;SDS011;1474;51.460;7.150;2022-08-03T14:32:15;0.77;;;0.45;;
2928;SDS011;1474;51.460;7.150;2022-08-03T14:34:40;1.45;;;0.20;;
2928;SDS011;1474;51.460;7.150;2022-08-03T14:37:06;0.43;;;0.40;;
2928;SDS011;1474;51.460;7.150;2022-08-03T14:39:32;0.38;;;0.32;;
2928;SDS011;1474;51.460;7.150;2022-08-03T14:41:58;0.50;;;0.30;;
2928;SDS011;1474;51.460;7.150;2022-08-03T14:44:24;0.35;;;0.35;;
2928;SDS011;1474;51.460;7.150;2022-08-03T14:46:50;0.40;;;0.30;;
2928;SDS011;1474;51.460;7.150;2022-08-03T14:49:15;0.47;;;0.22;;
2928;SDS011;1474;51.460;7.150;2022-08-03T14:51:41;0.20;;;0.20;;
2928;SDS011;1474;51.460;7.150;2022-08-03T14:54:06;0.55;;;0.30;;
2928;SDS011;1474;51.460;7.150;2022-08-03T14:56:32;2.08;;;0.30;;
2928;SDS011;1474;51.460;7.150;2022-08-03T14:58:58;0.65;;;0.50;;
2928;SDS011;1474;51.460;7.150;2022-08-03T15:01:23;0.75;;;0.50;;
2928;SDS011;1474;51.460;7.150;2022-08-03T15:03:49;0.60;;;0.28;;
2928;SDS011;1474;51.460;7.150;2022-08-03T15:06:15;1.77;;;0.47;;
2928;SDS011;1474;51.460;7.150;2022-08-03T15:08:40;0.20;;;0.20;;
2928;SDS011;1474;51.460;7.150;2022-08-03T15:11:06;1.05;;;0.30;;
2928;SDS011;1474;51.460;7.150;2022-08-03T15:13:32;0.65;;;0.45;;
2928;SDS011;1474;51.460;7.150;2022-08-03T15:15:57;0.38;;;0.17;;
2928;SDS011;1474;51.460;7.150;2022-08-03T15:18:23;0.17;;;0.17;;
2928;SDS011;1474;51.460;7.150;2022-08-03T15:20:48;0.90;;;0.30;;
2928;SDS011;1474;51.460;7.150;2022-08-03T15:23:15;0.50;;;0.50;;
2928;SDS011;1474;51.460;7.150;2022-08-03T15:25:44;0.47;;;0.40;;
2928;SDS011;1474;51.460;7.150;2022-08-03T15:28:10;0.98;;;0.50;;
2928;SDS011;1474;51.460;7.150;2022-08-03T15:30:36;0.55;;;0.55;;
2928;SDS011;1474;51.460;7.150;2022-08-03T15:33:04;0.40;;;0.20;;
2928;SDS011;1474;51.460;7.150;2022-08-03T15:35:30;0.40;;;0.30;;
2928;SDS011;1474;51.460;7.150;2022-08-03T15:37:56;0.45;;;0.30;;
2928;SDS011;1474;51.460;7.150;2022-08-03T15:40:22;1.13;;;0.50;;
2928;SDS011;1474;51.460;7.150;2022-08-03T15:42:48;0.10;;;0.10;;
2928;SDS011;1474;51.460;7.150;2022-08-03T15:45:13;0.20;;;0.10;;
2928;SDS011;1474;51.460;7.150;2022-08-03T15:47:39;0.50;;;0.40;;
2928;SDS011;1474;51.460;7.150;2022-08-03T15:50:05;0.45;;;0.45;;
2928;SDS011;1474;51.460;7.150;2022-08-03T15:52:31;0.47;;;0.40;;
2928;SDS011;1474;51.460;7.150;2022-08-03T15:54:57;1.13;;;0.28;;
2928;SDS011;1474;51.460;7.150;2022-08-03T15:57:23;0.85;;;0.28;;
2928;SDS011;1474;51.460;7.150;2022-08-03T15:59:48;0.30;;;0.28;;
2928;SDS011;1474;51.460;7.150;2022-08-03T16:02:14;0.13;;;0.13;;
2928;SDS011;1474;51.460;7.150;2022-08-03T16:04:40;0.50;;;0.30;;
2928;SDS011;1474;51.460;7.150;2022-08-03T16:07:06;0.40;;;0.30;;
2928;SDS011;1474;51.460;7.150;2022-08-03T16:09:32;1.00;;;0.47;;
2928;SDS011;1474;51.460;7.150;2022-08-03T16:11:58;0.63;;;0.30;;
2928;SDS011;1474;51.460;7.150;2022-08-03T16:14:23;0.70;;;0.30;;
2928;SDS011;1474;51.460;7.150;2022-08-03T16:16:49;0.10;;;0.10;;
2928;SDS011;1474;51.460;7.150;2022-08-03T16:19:15;0.10;;;0.10;;
2928;SDS011;1474;51.460;7.150;2022-08-03T16:21:40;0.75;;;0.35;;
2928;SDS011;1474;51.460;7.150;2022-08-03T16:24:06;0.95;;;0.28;;
2928;SDS011;1474;51.460;7.150;2022-08-03T16:26:32;0.25;;;0.25;;
2928;SDS011;1474;51.460;7.150;2022-08-03T16:28:57;0.52;;;0.52;;
2928;SDS011;1474;51.460;7.150;2022-08-03T16:31:23;0.30;;;0.20;;
2928;SDS011;1474;51.460;7.150;2022-08-03T16:33:51;0.03;;;0.03;;